sensor_id;sensor_type;location;lat;lon;timestamp;P1;durP1;ratioP1;P2;durP2;ratioP2
25207;SDS011;13153;52.316;21.166;2023-12-14T00:01:50;92.43;;;38.40;;
25207;SDS011;13153;52.316;21.166;2023-12-14T00:04:16;89.57;;;36.75;;
25207;SDS011;13153;52.316;21.166;2023-12-14T00:06:42;95.43;;;39.08;;
25207;SDS011;13153;52.316;21.166;2023-12-14T00:09:08;85.50;;;36.88;;
25207;SDS011;13153;52.316;21.166;2023-12-14T00:11:39;88.60;;;38.17;;
25207;SDS011;13153;52.316;21.166;2023-12-14T00:14:05;88.63;;;36.45;;
25207;SDS011;13153;52.316;21.166;2023-12-14T00:16:31;92.38;;;38.17;;
25207;SDS011;13153;52.316;21.166;2023-12-14T00:18:57;82.03;;;36.42;;
25207;SDS011;13153;52.316;21.166;2023-12-14T00:21:23;93.40;;;38.17;;
25207;SDS011;13153;52.316;21.166;2023-12-14T00:23:49;85.47;;;36.95;;
25207;SDS011;13153;52.316;21.166;2023-12-14T00:26:15;84.40;;;35.88;;
25207;SDS011;13153;52.316;21.166;2023-12-14T00:28:42;88.72;;;37.22;;
25207;SDS011;13153;52.316;21.166;2023-12-14T00:31:08;87.30;;;35.90;;
25207;SDS011;13153;52.316;21.166;2023-12-14T00:33:34;89.50;;;35.90;;
25207;SDS011;13153;52.316;21.166;2023-12-14T00:36:00;93.22;;;35.15;;
25207;SDS011;13153;52.316;21.166;2023-12-14T00:38:26;97.13;;;36.35;;
25207;SDS011;13153;52.316;21.166;2023-12-14T00:40:51;91.80;;;36.58;;
25207;SDS011;13153;52.316;21.166;2023-12-14T00:43:17;83.80;;;34.67;;
25207;SDS011;13153;52.316;21.166;2023-12-14T00:45:43;90.78;;;36.13;;
25207;SDS011;13153;52.316;21.166;2023-12-14T00:48:09;91.53;;;36.78;;
25207;SDS011;13153;52.316;21.166;2023-12-14T00:50:34;84.72;;;36.22;;
25207;SDS011;13153;52.316;21.166;2023-12-14T00:53:00;85.05;;;33.97;;
25207;SDS011;13153;52.316;21.166;2023-12-14T00:55:26;90.72;;;35.97;;
25207;SDS011;13153;52.316;21.166;2023-12-14T00:57:51;86.97;;;36.13;;
25207;SDS011;13153;52.316;21.166;2023-12-14T01:00:18;85.90;;;34.50;;
25207;SDS011;13153;52.316;21.166;2023-12-14T01:02:44;80.93;;;33.63;;
25207;SDS011;13153;52.316;21.166;2023-12-14T01:05:10;86.07;;;34.80;;
25207;SDS011;13153;52.316;21.166;2023-12-14T01:07:35;81.70;;;33.15;;
25207;SDS011;13153;52.316;21.166;2023-12-14T01:10:01;79.85;;;32.90;;
25207;SDS011;13153;52.316;21.166;2023-12-14T01:12:28;78.68;;;31.42;;
25207;SDS011;13153;52.316;21.166;2023-12-14T01:14:54;94.95;;;35.50;;
25207;SDS011;13153;52.316;21.166;2023-12-14T01:17:20;82.70;;;33.67;;
25207;SDS011;13153;52.316;21.166;2023-12-14T01:19:46;83.72;;;34.55;;
25207;SDS011;13153;52.316;21.166;2023-12-14T01:22:12;84.20;;;34.05;;
25207;SDS011;13153;52.316;21.166;2023-12-14T01:24:37;96.07;;;36.03;;
25207;SDS011;13153;52.316;21.166;2023-12-14T01:27:03;96.82;;;36.25;;
25207;SDS011;13153;52.316;21.166;2023-12-14T01:29:29;107.22;;;37.88;;
25207;SDS011;13153;52.316;21.166;2023-12-14T01:31:55;110.60;;;38.92;;
25207;SDS011;13153;52.316;21.166;2023-12-14T01:34:20;119.60;;;40.03;;
25207;SDS011;13153;52.316;21.166;2023-12-14T01:36:46;115.25;;;38.78;;
25207;SDS011;13153;52.316;21.166;2023-12-14T01:39:12;124.63;;;40.78;;
25207;SDS011;13153;52.316;21.166;2023-12-14T01:41:37;115.65;;;40.38;;
25207;SDS011;13153;52.316;21.166;2023-12-14T01:44:03;131.10;;;40.40;;
25207;SDS011;13153;52.316;21.166;2023-12-14T01:46:29;122.57;;;38.75;;
25207;SDS011;13153;52.316;21.166;2023-12-14T01:48:55;117.47;;;38.92;;
25207;SDS011;13153;52.316;21.166;2023-12-14T01:51:20;122.00;;;40.72;;
25207;SDS011;13153;52.316;21.166;2023-12-14T01:53:46;141.00;;;40.95;;
25207;SDS011;13153;52.316;21.166;2023-12-14T01:56:12;116.55;;;38.17;;
25207;SDS011;13153;52.316;21.166;2023-12-14T01:58:38;122.95;;;39.00;;
25207;SDS011;13153;52.316;21.166;2023-12-14T02:03:48;127.28;;;39.50;;
25207;SDS011;13153;52.316;21.166;2023-12-14T02:06:16;125.00;;;39.58;;
25207;SDS011;13153;52.316;21.166;2023-12-14T02:08:42;118.55;;;38.28;;
25207;SDS011;13153;52.316;21.166;2023-12-14T02:11:08;116.55;;;39.83;;
25207;SDS011;13153;52.316;21.166;2023-12-14T02:13:33;125.70;;;37.45;;
25207;SDS011;13153;52.316;21.166;2023-12-14T02:15:59;115.47;;;38.63;;
25207;SDS011;13153;52.316;21.166;2023-12-14T02:18:25;122.72;;;38.47;;
25207;SDS011;13153;52.316;21.166;2023-12-14T02:20:51;114.95;;;36.65;;
25207;SDS011;13153;52.316;21.166;2023-12-14T02:23:17;107.20;;;35.75;;
25207;SDS011;13153;52.316;21.166;2023-12-14T02:25:43;105.13;;;35.55;;
25207;SDS011;13153;52.316;21.166;2023-12-14T02:28:09;105.47;;;35.03;;
25207;SDS011;13153;52.316;21.166;2023-12-14T02:30:34;117.63;;;36.17;;
25207;SDS011;13153;52.316;21.166;2023-12-14T02:33:00;125.72;;;38.13;;
25207;SDS011;13153;52.316;21.166;2023-12-14T02:35:26;117.32;;;36.70;;
25207;SDS011;13153;52.316;21.166;2023-12-14T02:37:52;119.13;;;37.85;;
25207;SDS011;13153;52.316;21.166;2023-12-14T02:40:17;122.05;;;38.03;;
25207;SDS011;13153;52.316;21.166;2023-12-14T02:42:43;113.45;;;36.90;;
25207;SDS011;13153;52.316;21.166;2023-12-14T02:45:09;118.38;;;35.42;;
25207;SDS011;13153;52.316;21.166;2023-12-14T02:47:35;112.18;;;35.50;;
25207;SDS011;13153;52.316;21.166;2023-12-14T02:50:00;116.03;;;36.00;;
25207;SDS011;13153;52.316;21.166;2023-12-14T02:52:26;97.35;;;33.88;;
25207;SDS011;13153;52.316;21.166;2023-12-14T02:54:52;117.63;;;36.90;;
25207;SDS011;13153;52.316;21.166;2023-12-14T02:57:18;113.55;;;35.63;;
25207;SDS011;13153;52.316;21.166;2023-12-14T02:59:44;106.78;;;35.53;;
25207;SDS011;13153;52.316;21.166;2023-12-14T03:02:09;97.45;;;33.97;;
25207;SDS011;13153;52.316;21.166;2023-12-14T03:04:37;111.30;;;36.67;;
25207;SDS011;13153;52.316;21.166;2023-12-14T03:07:04;104.65;;;35.00;;
25207;SDS011;13153;52.316;21.166;2023-12-14T03:09:31;108.50;;;34.38;;
25207;SDS011;13153;52.316;21.166;2023-12-14T03:11:57;93.35;;;33.03;;
25207;SDS011;13153;52.316;21.166;2023-12-14T03:14:24;90.32;;;31.50;;
25207;SDS011;13153;52.316;21.166;2023-12-14T03:16:50;104.38;;;34.63;;
25207;SDS011;13153;52.316;21.166;2023-12-14T03:19:16;106.70;;;34.78;;
25207;SDS011;13153;52.316;21.166;2023-12-14T03:21:42;108.40;;;33.92;;
25207;SDS011;13153;52.316;21.166;2023-12-14T03:24:08;105.80;;;34.78;;
25207;SDS011;13153;52.316;21.166;2023-12-14T03:26:34;100.85;;;33.13;;
25207;SDS011;13153;52.316;21.166;2023-12-14T03:29:00;106.00;;;34.50;;
25207;SDS011;13153;52.316;21.166;2023-12-14T03:31:26;98.80;;;35.55;;
25207;SDS011;13153;52.316;21.166;2023-12-14T03:33:52;106.03;;;35.10;;
25207;SDS011;13153;52.316;21.166;2023-12-14T03:36:18;103.22;;;33.97;;
25207;SDS011;13153;52.316;21.166;2023-12-14T03:38:44;100.15;;;34.13;;
25207;SDS011;13153;52.316;21.166;2023-12-14T03:41:10;109.80;;;34.38;;
25207;SDS011;13153;52.316;21.166;2023-12-14T03:43:35;98.40;;;33.88;;
25207;SDS011;13153;52.316;21.166;2023-12-14T03:46:01;105.40;;;33.40;;
25207;SDS011;13153;52.316;21.166;2023-12-14T03:48:27;97.07;;;32.33;;
25207;SDS011;13153;52.316;21.166;2023-12-14T03:50:54;103.25;;;32.10;;
25207;SDS011;13153;52.316;21.166;2023-12-14T03:53:19;97.65;;;33.50;;
25207;SDS011;13153;52.316;21.166;2023-12-14T03:55:45;99.78;;;33.90;;
25207;SDS011;13153;52.316;21.166;2023-12-14T03:58:11;108.80;;;33.90;;
25207;SDS011;13153;52.316;21.166;2023-12-14T04:00:37;105.80;;;34.25;;
25207;SDS011;13153;52.316;21.166;2023-12-14T04:03:03;99.38;;;34.35;;
25207;SDS011;13153;52.316;21.166;2023-12-14T04:05:28;104.65;;;34.58;;
25207;SDS011;13153;52.316;21.166;2023-12-14T04:07:54;95.10;;;31.98;;
25207;SDS011;13153;52.316;21.166;2023-12-14T04:10:20;91.18;;;31.13;;
25207;SDS011;13153;52.316;21.166;2023-12-14T04:12:45;92.80;;;32.78;;
25207;SDS011;13153;52.316;21.166;2023-12-14T04:15:11;89.88;;;31.73;;
25207;SDS011;13153;52.316;21.166;2023-12-14T04:17:37;94.68;;;31.30;;
25207;SDS011;13153;52.316;21.166;2023-12-14T04:20:03;87.45;;;29.92;;
25207;SDS011;13153;52.316;21.166;2023-12-14T04:22:31;92.32;;;31.20;;
25207;SDS011;13153;52.316;21.166;2023-12-14T04:24:57;85.55;;;31.33;;
25207;SDS011;13153;52.316;21.166;2023-12-14T04:27:22;94.00;;;33.22;;
25207;SDS011;13153;52.316;21.166;2023-12-14T04:29:53;87.05;;;31.17;;
25207;SDS011;13153;52.316;21.166;2023-12-14T04:32:19;91.28;;;30.92;;
25207;SDS011;13153;52.316;21.166;2023-12-14T04:34:45;92.78;;;32.97;;
25207;SDS011;13153;52.316;21.166;2023-12-14T04:37:11;95.68;;;31.77;;
25207;SDS011;13153;52.316;21.166;2023-12-14T04:39:36;88.85;;;30.55;;
25207;SDS011;13153;52.316;21.166;2023-12-14T04:42:02;98.45;;;32.92;;
25207;SDS011;13153;52.316;21.166;2023-12-14T04:44:28;94.57;;;33.17;;
25207;SDS011;13153;52.316;21.166;2023-12-14T04:46:54;86.05;;;30.38;;
25207;SDS011;13153;52.316;21.166;2023-12-14T04:49:20;88.93;;;30.98;;
25207;SDS011;13153;52.316;21.166;2023-12-14T04:51:46;92.55;;;31.50;;
25207;SDS011;13153;52.316;21.166;2023-12-14T04:54:12;81.05;;;29.52;;
25207;SDS011;13153;52.316;21.166;2023-12-14T04:56:37;86.13;;;30.77;;
25207;SDS011;13153;52.316;21.166;2023-12-14T04:59:03;86.68;;;32.15;;
25207;SDS011;13153;52.316;21.166;2023-12-14T05:01:29;85.50;;;31.02;;
25207;SDS011;13153;52.316;21.166;2023-12-14T05:03:55;84.35;;;30.63;;
25207;SDS011;13153;52.316;21.166;2023-12-14T05:06:21;89.97;;;31.48;;
25207;SDS011;13153;52.316;21.166;2023-12-14T05:08:47;89.78;;;31.60;;
25207;SDS011;13153;52.316;21.166;2023-12-14T05:11:13;83.63;;;30.00;;
25207;SDS011;13153;52.316;21.166;2023-12-14T05:13:39;88.05;;;31.08;;
25207;SDS011;13153;52.316;21.166;2023-12-14T05:16:05;98.10;;;31.73;;
25207;SDS011;13153;52.316;21.166;2023-12-14T05:18:32;77.88;;;29.38;;
25207;SDS011;13153;52.316;21.166;2023-12-14T05:20:59;88.90;;;31.88;;
25207;SDS011;13153;52.316;21.166;2023-12-14T05:23:24;85.45;;;30.90;;
25207;SDS011;13153;52.316;21.166;2023-12-14T05:25:50;92.13;;;32.55;;
25207;SDS011;13153;52.316;21.166;2023-12-14T05:28:16;91.13;;;32.42;;
25207;SDS011;13153;52.316;21.166;2023-12-14T05:30:42;86.50;;;33.20;;
25207;SDS011;13153;52.316;21.166;2023-12-14T05:33:08;84.60;;;31.55;;
25207;SDS011;13153;52.316;21.166;2023-12-14T05:35:34;85.15;;;31.23;;
25207;SDS011;13153;52.316;21.166;2023-12-14T05:38:00;83.10;;;31.30;;
25207;SDS011;13153;52.316;21.166;2023-12-14T05:40:25;80.85;;;31.30;;
25207;SDS011;13153;52.316;21.166;2023-12-14T05:42:51;86.68;;;31.25;;
25207;SDS011;13153;52.316;21.166;2023-12-14T05:45:17;84.65;;;32.63;;
25207;SDS011;13153;52.316;21.166;2023-12-14T05:47:45;88.90;;;33.45;;
25207;SDS011;13153;52.316;21.166;2023-12-14T05:50:11;86.82;;;32.63;;
25207;SDS011;13153;52.316;21.166;2023-12-14T05:52:37;87.05;;;32.20;;
25207;SDS011;13153;52.316;21.166;2023-12-14T05:55:06;78.70;;;31.23;;
25207;SDS011;13153;52.316;21.166;2023-12-14T05:57:37;81.05;;;31.23;;
25207;SDS011;13153;52.316;21.166;2023-12-14T06:00:04;83.78;;;30.35;;
25207;SDS011;13153;52.316;21.166;2023-12-14T06:02:32;79.63;;;31.30;;
25207;SDS011;13153;52.316;21.166;2023-12-14T06:04:58;79.05;;;32.45;;
25207;SDS011;13153;52.316;21.166;2023-12-14T06:07:24;81.32;;;30.80;;
25207;SDS011;13153;52.316;21.166;2023-12-14T06:09:50;78.00;;;32.40;;
25207;SDS011;13153;52.316;21.166;2023-12-14T06:12:16;78.78;;;31.23;;
25207;SDS011;13153;52.316;21.166;2023-12-14T06:14:41;79.43;;;32.03;;
25207;SDS011;13153;52.316;21.166;2023-12-14T06:17:07;77.22;;;31.42;;
25207;SDS011;13153;52.316;21.166;2023-12-14T06:19:33;75.57;;;31.13;;
25207;SDS011;13153;52.316;21.166;2023-12-14T06:21:59;79.10;;;31.95;;
25207;SDS011;13153;52.316;21.166;2023-12-14T06:24:24;81.53;;;32.15;;
25207;SDS011;13153;52.316;21.166;2023-12-14T06:26:50;78.00;;;33.38;;
25207;SDS011;13153;52.316;21.166;2023-12-14T06:29:16;79.65;;;32.65;;
25207;SDS011;13153;52.316;21.166;2023-12-14T06:31:42;77.40;;;33.65;;
25207;SDS011;13153;52.316;21.166;2023-12-14T06:34:10;75.30;;;30.90;;
25207;SDS011;13153;52.316;21.166;2023-12-14T06:36:36;76.28;;;33.28;;
25207;SDS011;13153;52.316;21.166;2023-12-14T06:39:07;79.80;;;33.88;;
25207;SDS011;13153;52.316;21.166;2023-12-14T06:41:33;87.28;;;34.53;;
25207;SDS011;13153;52.316;21.166;2023-12-14T06:43:59;79.72;;;33.40;;
25207;SDS011;13153;52.316;21.166;2023-12-14T06:46:25;84.05;;;35.17;;
25207;SDS011;13153;52.316;21.166;2023-12-14T06:48:50;79.80;;;33.70;;
25207;SDS011;13153;52.316;21.166;2023-12-14T06:51:16;78.43;;;33.15;;
25207;SDS011;13153;52.316;21.166;2023-12-14T06:53:42;73.47;;;31.42;;
25207;SDS011;13153;52.316;21.166;2023-12-14T06:56:09;72.97;;;31.08;;
25207;SDS011;13153;52.316;21.166;2023-12-14T06:58:45;71.50;;;30.65;;
25207;SDS011;13153;52.316;21.166;2023-12-14T07:01:14;64.55;;;28.25;;
25207;SDS011;13153;52.316;21.166;2023-12-14T07:03:43;68.10;;;29.05;;
25207;SDS011;13153;52.316;21.166;2023-12-14T07:06:12;63.78;;;28.90;;
25207;SDS011;13153;52.316;21.166;2023-12-14T07:08:40;74.10;;;30.75;;
25207;SDS011;13153;52.316;21.166;2023-12-14T07:11:07;74.78;;;31.88;;
25207;SDS011;13153;52.316;21.166;2023-12-14T07:13:37;74.60;;;31.85;;
25207;SDS011;13153;52.316;21.166;2023-12-14T07:16:07;84.03;;;34.13;;
25207;SDS011;13153;52.316;21.166;2023-12-14T07:18:35;82.85;;;32.38;;
25207;SDS011;13153;52.316;21.166;2023-12-14T07:21:06;84.68;;;35.80;;
25207;SDS011;13153;52.316;21.166;2023-12-14T07:23:33;88.15;;;35.92;;
25207;SDS011;13153;52.316;21.166;2023-12-14T07:26:00;79.70;;;33.40;;
25207;SDS011;13153;52.316;21.166;2023-12-14T07:28:26;78.80;;;32.78;;
25207;SDS011;13153;52.316;21.166;2023-12-14T07:30:52;68.63;;;29.98;;
25207;SDS011;13153;52.316;21.166;2023-12-14T07:33:18;74.22;;;30.27;;
25207;SDS011;13153;52.316;21.166;2023-12-14T07:35:44;77.40;;;32.13;;
25207;SDS011;13153;52.316;21.166;2023-12-14T07:38:10;75.35;;;32.15;;
25207;SDS011;13153;52.316;21.166;2023-12-14T07:40:36;78.50;;;30.98;;
25207;SDS011;13153;52.316;21.166;2023-12-14T07:43:04;66.35;;;28.40;;
25207;SDS011;13153;52.316;21.166;2023-12-14T07:45:30;69.75;;;30.25;;
25207;SDS011;13153;52.316;21.166;2023-12-14T07:47:56;67.45;;;27.85;;
25207;SDS011;13153;52.316;21.166;2023-12-14T07:50:23;74.40;;;29.85;;
25207;SDS011;13153;52.316;21.166;2023-12-14T07:52:48;68.60;;;28.08;;
25207;SDS011;13153;52.316;21.166;2023-12-14T07:55:14;67.78;;;27.52;;
25207;SDS011;13153;52.316;21.166;2023-12-14T07:57:40;67.82;;;28.35;;
25207;SDS011;13153;52.316;21.166;2023-12-14T08:00:06;62.25;;;27.35;;
25207;SDS011;13153;52.316;21.166;2023-12-14T08:02:35;65.20;;;27.38;;
25207;SDS011;13153;52.316;21.166;2023-12-14T08:05:02;66.13;;;27.30;;
25207;SDS011;13153;52.316;21.166;2023-12-14T08:07:29;70.10;;;28.83;;
25207;SDS011;13153;52.316;21.166;2023-12-14T08:09:56;73.15;;;29.75;;
25207;SDS011;13153;52.316;21.166;2023-12-14T08:12:22;67.03;;;29.08;;
25207;SDS011;13153;52.316;21.166;2023-12-14T08:14:49;75.93;;;29.95;;
25207;SDS011;13153;52.316;21.166;2023-12-14T08:17:15;72.57;;;29.10;;
25207;SDS011;13153;52.316;21.166;2023-12-14T08:19:41;70.93;;;28.83;;
25207;SDS011;13153;52.316;21.166;2023-12-14T08:22:08;75.40;;;29.08;;
25207;SDS011;13153;52.316;21.166;2023-12-14T08:24:37;77.90;;;31.85;;
25207;SDS011;13153;52.316;21.166;2023-12-14T08:27:03;81.85;;;32.50;;
25207;SDS011;13153;52.316;21.166;2023-12-14T08:29:29;75.07;;;30.05;;
25207;SDS011;13153;52.316;21.166;2023-12-14T08:31:55;70.93;;;30.00;;
25207;SDS011;13153;52.316;21.166;2023-12-14T08:34:22;80.15;;;32.13;;
25207;SDS011;13153;52.316;21.166;2023-12-14T08:36:50;82.05;;;31.90;;
25207;SDS011;13153;52.316;21.166;2023-12-14T08:39:16;83.18;;;32.15;;
25207;SDS011;13153;52.316;21.166;2023-12-14T08:41:42;73.55;;;31.13;;
25207;SDS011;13153;52.316;21.166;2023-12-14T08:44:09;81.07;;;31.63;;
25207;SDS011;13153;52.316;21.166;2023-12-14T08:46:42;73.03;;;31.52;;
25207;SDS011;13153;52.316;21.166;2023-12-14T08:49:10;71.32;;;30.00;;
25207;SDS011;13153;52.316;21.166;2023-12-14T08:51:37;73.93;;;32.03;;
25207;SDS011;13153;52.316;21.166;2023-12-14T08:54:04;68.45;;;29.08;;
25207;SDS011;13153;52.316;21.166;2023-12-14T08:56:31;67.10;;;28.67;;
25207;SDS011;13153;52.316;21.166;2023-12-14T08:58:57;54.33;;;26.63;;
25207;SDS011;13153;52.316;21.166;2023-12-14T09:01:24;63.90;;;28.15;;
25207;SDS011;13153;52.316;21.166;2023-12-14T09:03:50;56.03;;;26.02;;
25207;SDS011;13153;52.316;21.166;2023-12-14T09:06:16;58.42;;;25.70;;
25207;SDS011;13153;52.316;21.166;2023-12-14T09:08:45;58.15;;;27.25;;
25207;SDS011;13153;52.316;21.166;2023-12-14T09:11:11;54.70;;;26.75;;
25207;SDS011;13153;52.316;21.166;2023-12-14T09:13:38;50.67;;;24.88;;
25207;SDS011;13153;52.316;21.166;2023-12-14T09:16:04;51.17;;;24.55;;
25207;SDS011;13153;52.316;21.166;2023-12-14T09:18:30;51.60;;;24.05;;
25207;SDS011;13153;52.316;21.166;2023-12-14T09:20:56;49.10;;;24.23;;
25207;SDS011;13153;52.316;21.166;2023-12-14T09:23:21;49.10;;;23.83;;
25207;SDS011;13153;52.316;21.166;2023-12-14T09:25:47;48.17;;;22.88;;
25207;SDS011;13153;52.316;21.166;2023-12-14T09:28:14;43.88;;;21.20;;
25207;SDS011;13153;52.316;21.166;2023-12-14T09:30:40;42.20;;;20.35;;
25207;SDS011;13153;52.316;21.166;2023-12-14T09:33:06;41.72;;;19.70;;
25207;SDS011;13153;52.316;21.166;2023-12-14T09:35:33;41.78;;;20.35;;
25207;SDS011;13153;52.316;21.166;2023-12-14T09:38:02;41.22;;;19.80;;
25207;SDS011;13153;52.316;21.166;2023-12-14T09:40:29;42.40;;;20.42;;
25207;SDS011;13153;52.316;21.166;2023-12-14T09:42:55;45.25;;;22.13;;
25207;SDS011;13153;52.316;21.166;2023-12-14T09:45:24;46.40;;;21.67;;
25207;SDS011;13153;52.316;21.166;2023-12-14T09:47:54;41.75;;;19.77;;
25207;SDS011;13153;52.316;21.166;2023-12-14T09:50:24;41.22;;;20.13;;
25207;SDS011;13153;52.316;21.166;2023-12-14T09:52:50;43.15;;;20.90;;
25207;SDS011;13153;52.316;21.166;2023-12-14T09:55:16;38.55;;;19.38;;
25207;SDS011;13153;52.316;21.166;2023-12-14T09:57:42;42.10;;;20.45;;
25207;SDS011;13153;52.316;21.166;2023-12-14T10:00:08;44.35;;;21.73;;
25207;SDS011;13153;52.316;21.166;2023-12-14T10:02:35;52.60;;;25.27;;
25207;SDS011;13153;52.316;21.166;2023-12-14T10:05:02;53.05;;;26.88;;
25207;SDS011;13153;52.316;21.166;2023-12-14T10:07:30;50.78;;;23.92;;
25207;SDS011;13153;52.316;21.166;2023-12-14T10:09:59;48.03;;;23.63;;
25207;SDS011;13153;52.316;21.166;2023-12-14T10:12:50;44.25;;;22.17;;
25207;SDS011;13153;52.316;21.166;2023-12-14T10:15:19;45.00;;;21.15;;
25207;SDS011;13153;52.316;21.166;2023-12-14T10:17:50;53.00;;;24.45;;
25207;SDS011;13153;52.316;21.166;2023-12-14T10:20:22;52.10;;;24.73;;
25207;SDS011;13153;52.316;21.166;2023-12-14T10:22:51;48.83;;;25.90;;
25207;SDS011;13153;52.316;21.166;2023-12-14T10:25:18;49.60;;;22.75;;
25207;SDS011;13153;52.316;21.166;2023-12-14T10:27:48;47.10;;;21.13;;
25207;SDS011;13153;52.316;21.166;2023-12-14T10:30:17;37.72;;;18.08;;
25207;SDS011;13153;52.316;21.166;2023-12-14T10:32:45;36.55;;;17.88;;
25207;SDS011;13153;52.316;21.166;2023-12-14T10:35:14;39.25;;;18.05;;
25207;SDS011;13153;52.316;21.166;2023-12-14T10:37:42;53.60;;;21.50;;
25207;SDS011;13153;52.316;21.166;2023-12-14T10:40:10;51.17;;;19.85;;
25207;SDS011;13153;52.316;21.166;2023-12-14T10:42:39;42.20;;;19.05;;
25207;SDS011;13153;52.316;21.166;2023-12-14T10:45:13;38.72;;;17.33;;
25207;SDS011;13153;52.316;21.166;2023-12-14T10:47:44;34.45;;;16.70;;
25207;SDS011;13153;52.316;21.166;2023-12-14T10:50:13;32.05;;;15.38;;
25207;SDS011;13153;52.316;21.166;2023-12-14T10:52:40;27.98;;;13.40;;
25207;SDS011;13153;52.316;21.166;2023-12-14T10:57:57;32.58;;;15.35;;
25207;SDS011;13153;52.316;21.166;2023-12-14T11:00:23;26.15;;;13.73;;
25207;SDS011;13153;52.316;21.166;2023-12-14T11:02:49;26.02;;;13.25;;
25207;SDS011;13153;52.316;21.166;2023-12-14T11:05:18;26.50;;;13.32;;
25207;SDS011;13153;52.316;21.166;2023-12-14T11:07:55;28.77;;;14.15;;
25207;SDS011;13153;52.316;21.166;2023-12-14T11:10:28;27.88;;;13.25;;
25207;SDS011;13153;52.316;21.166;2023-12-14T11:13:06;24.80;;;12.48;;
25207;SDS011;13153;52.316;21.166;2023-12-14T11:15:39;29.95;;;14.57;;
25207;SDS011;13153;52.316;21.166;2023-12-14T11:23:11;40.67;;;18.90;;
25207;SDS011;13153;52.316;21.166;2023-12-14T11:25:42;35.75;;;17.23;;
25207;SDS011;13153;52.316;21.166;2023-12-14T11:28:09;35.33;;;17.40;;
25207;SDS011;13153;52.316;21.166;2023-12-14T11:30:35;49.03;;;23.52;;
25207;SDS011;13153;52.316;21.166;2023-12-14T11:33:02;44.65;;;21.63;;
25207;SDS011;13153;52.316;21.166;2023-12-14T11:35:29;41.80;;;20.63;;
25207;SDS011;13153;52.316;21.166;2023-12-14T11:37:55;45.28;;;19.63;;
25207;SDS011;13153;52.316;21.166;2023-12-14T11:40:24;46.55;;;20.10;;
25207;SDS011;13153;52.316;21.166;2023-12-14T11:42:58;46.28;;;20.75;;
25207;SDS011;13153;52.316;21.166;2023-12-14T11:45:24;44.03;;;19.88;;
25207;SDS011;13153;52.316;21.166;2023-12-14T11:47:51;45.58;;;21.13;;
25207;SDS011;13153;52.316;21.166;2023-12-14T11:50:17;45.10;;;21.42;;
25207;SDS011;13153;52.316;21.166;2023-12-14T11:52:43;51.05;;;22.23;;
25207;SDS011;13153;52.316;21.166;2023-12-14T11:55:12;56.22;;;24.55;;
25207;SDS011;13153;52.316;21.166;2023-12-14T11:57:45;54.88;;;24.65;;
25207;SDS011;13153;52.316;21.166;2023-12-14T12:00:12;52.60;;;25.42;;
25207;SDS011;13153;52.316;21.166;2023-12-14T12:02:39;51.05;;;24.40;;
25207;SDS011;13153;52.316;21.166;2023-12-14T12:05:08;49.92;;;23.27;;
25207;SDS011;13153;52.316;21.166;2023-12-14T12:07:38;49.90;;;24.08;;
25207;SDS011;13153;52.316;21.166;2023-12-14T12:10:08;62.03;;;27.13;;
25207;SDS011;13153;52.316;21.166;2023-12-14T12:12:35;57.42;;;26.23;;
25207;SDS011;13153;52.316;21.166;2023-12-14T12:15:01;48.15;;;22.80;;
25207;SDS011;13153;52.316;21.166;2023-12-14T12:17:27;50.75;;;22.27;;
25207;SDS011;13153;52.316;21.166;2023-12-14T12:19:53;53.85;;;22.67;;
25207;SDS011;13153;52.316;21.166;2023-12-14T12:22:19;61.05;;;25.77;;
25207;SDS011;13153;52.316;21.166;2023-12-14T12:24:44;54.58;;;23.95;;
25207;SDS011;13153;52.316;21.166;2023-12-14T12:27:10;55.05;;;21.92;;
25207;SDS011;13153;52.316;21.166;2023-12-14T12:29:36;54.80;;;22.05;;
25207;SDS011;13153;52.316;21.166;2023-12-14T12:32:01;50.33;;;22.60;;
25207;SDS011;13153;52.316;21.166;2023-12-14T12:34:27;52.88;;;23.25;;
25207;SDS011;13153;52.316;21.166;2023-12-14T12:36:54;63.65;;;25.38;;
25207;SDS011;13153;52.316;21.166;2023-12-14T12:39:22;59.25;;;26.17;;
25207;SDS011;13153;52.316;21.166;2023-12-14T12:41:48;54.97;;;23.35;;
25207;SDS011;13153;52.316;21.166;2023-12-14T12:44:14;64.30;;;22.42;;
25207;SDS011;13153;52.316;21.166;2023-12-14T12:46:39;50.72;;;22.63;;
25207;SDS011;13153;52.316;21.166;2023-12-14T12:49:06;51.78;;;22.63;;
25207;SDS011;13153;52.316;21.166;2023-12-14T12:51:32;50.97;;;23.23;;
25207;SDS011;13153;52.316;21.166;2023-12-14T12:53:58;51.42;;;22.77;;
25207;SDS011;13153;52.316;21.166;2023-12-14T12:56:27;51.90;;;24.05;;
25207;SDS011;13153;52.316;21.166;2023-12-14T12:58:53;59.03;;;24.83;;
25207;SDS011;13153;52.316;21.166;2023-12-14T13:01:20;48.00;;;23.10;;
25207;SDS011;13153;52.316;21.166;2023-12-14T13:03:51;49.30;;;24.27;;
25207;SDS011;13153;52.316;21.166;2023-12-14T13:06:22;60.88;;;26.48;;
25207;SDS011;13153;52.316;21.166;2023-12-14T13:08:50;56.78;;;26.33;;
25207;SDS011;13153;52.316;21.166;2023-12-14T13:11:16;54.67;;;24.73;;
25207;SDS011;13153;52.316;21.166;2023-12-14T13:13:42;56.25;;;25.13;;
25207;SDS011;13153;52.316;21.166;2023-12-14T13:16:09;51.42;;;23.25;;
25207;SDS011;13153;52.316;21.166;2023-12-14T13:18:39;50.83;;;23.63;;
25207;SDS011;13153;52.316;21.166;2023-12-14T13:21:05;47.88;;;22.15;;
25207;SDS011;13153;52.316;21.166;2023-12-14T13:23:31;50.00;;;22.38;;
25207;SDS011;13153;52.316;21.166;2023-12-14T13:25:56;51.47;;;22.05;;
25207;SDS011;13153;52.316;21.166;2023-12-14T13:28:22;54.45;;;22.98;;
25207;SDS011;13153;52.316;21.166;2023-12-14T13:30:48;67.97;;;25.05;;
25207;SDS011;13153;52.316;21.166;2023-12-14T13:33:14;58.00;;;25.85;;
25207;SDS011;13153;52.316;21.166;2023-12-14T13:35:40;64.13;;;25.20;;
25207;SDS011;13153;52.316;21.166;2023-12-14T13:38:05;56.60;;;24.15;;
25207;SDS011;13153;52.316;21.166;2023-12-14T13:40:31;61.60;;;25.80;;
25207;SDS011;13153;52.316;21.166;2023-12-14T13:42:57;64.90;;;26.25;;
25207;SDS011;13153;52.316;21.166;2023-12-14T13:45:25;58.45;;;26.08;;
25207;SDS011;13153;52.316;21.166;2023-12-14T13:47:54;59.22;;;25.63;;
25207;SDS011;13153;52.316;21.166;2023-12-14T13:50:20;60.60;;;27.58;;
25207;SDS011;13153;52.316;21.166;2023-12-14T13:52:46;66.40;;;27.90;;
25207;SDS011;13153;52.316;21.166;2023-12-14T13:55:12;63.80;;;28.25;;
25207;SDS011;13153;52.316;21.166;2023-12-14T13:57:38;59.75;;;26.88;;
25207;SDS011;13153;52.316;21.166;2023-12-14T14:00:03;62.28;;;26.88;;
25207;SDS011;13153;52.316;21.166;2023-12-14T14:02:31;63.28;;;27.67;;
25207;SDS011;13153;52.316;21.166;2023-12-14T14:04:56;73.80;;;30.30;;
25207;SDS011;13153;52.316;21.166;2023-12-14T14:07:22;69.78;;;29.33;;
25207;SDS011;13153;52.316;21.166;2023-12-14T14:09:48;65.95;;;28.58;;
25207;SDS011;13153;52.316;21.166;2023-12-14T14:12:14;92.72;;;33.03;;
25207;SDS011;13153;52.316;21.166;2023-12-14T14:14:39;80.47;;;32.63;;